createdAt,value
2023-01-13T00:00:12.740Z,10.6
2023-01-13T00:01:20.924Z,10.6
2023-01-13T00:02:30.086Z,10.7
2023-01-13T00:03:39.265Z,10.6
2023-01-13T00:04:47.485Z,10.6
2023-01-13T00:05:55.656Z,10.7
2023-01-13T00:07:04.819Z,10.6
2023-01-13T00:08:13.997Z,10.7
2023-01-13T00:09:23.161Z,10.6
2023-01-13T00:10:32.343Z,10.7
2023-01-13T00:11:41.557Z,10.7
2023-01-13T00:12:50.681Z,10.7
2023-01-13T00:13:59.847Z,10.7
2023-01-13T00:15:09.025Z,10.7
2023-01-13T00:16:18.205Z,10.6
2023-01-13T00:17:27.376Z,10.6
2023-01-13T00:18:36.549Z,10.8
2023-01-13T00:19:45.722Z,10.8
2023-01-13T00:20:53.901Z,10.8
2023-01-13T00:22:03.084Z,10.9
2023-01-13T00:23:12.293Z,10.9
2023-01-13T00:24:21.445Z,10.8
2023-01-13T00:25:30.590Z,10.9
2023-01-13T00:26:39.776Z,10.8
2023-01-13T00:27:47.967Z,10.9
2023-01-13T00:28:57.136Z,10.8
2023-01-13T00:30:05.316Z,10.8
2023-01-13T00:31:13.557Z,10.8
2023-01-13T00:32:22.747Z,10.8
2023-01-13T00:33:31.893Z,10.7
2023-01-13T00:34:41.049Z,10.6
2023-01-13T00:35:49.236Z,10.7
2023-01-13T00:36:57.473Z,10.8
2023-01-13T00:38:06.600Z,10.8
2023-01-13T00:39:15.766Z,10.8
2023-01-13T00:40:24.944Z,10.7
2023-01-13T00:41:34.100Z,10.7
2023-01-13T00:42:43.316Z,10.7
2023-01-13T00:43:52.441Z,10.6
2023-01-13T00:45:01.642Z,10.6
2023-01-13T00:46:10.783Z,10.7
2023-01-13T00:47:19.967Z,10.7
2023-01-13T00:49:38.307Z,10.6
2023-01-13T00:50:47.483Z,10.7
2023-01-13T00:51:56.652Z,10.7
2023-01-13T00:53:04.851Z,10.7
2023-01-13T00:54:14.017Z,10.7
2023-01-13T00:55:23.185Z,10.7
2023-01-13T00:56:32.361Z,10.7
2023-01-13T00:57:41.539Z,10.6
2023-01-13T00:58:50.704Z,10.7
2023-01-13T00:59:59.904Z,10.7
2023-01-13T01:02:17.265Z,10.6
2023-01-13T01:03:25.449Z,10.6
2023-01-13T01:04:33.627Z,10.6
2023-01-13T01:05:42.822Z,10.6
2023-01-13T01:06:50.998Z,10.6
2023-01-13T01:08:00.183Z,10.6
2023-01-13T01:09:08.397Z,10.6
2023-01-13T01:10:17.523Z,10.5
2023-01-13T01:11:26.746Z,10.6
2023-01-13T01:13:45.059Z,10.5
2023-01-13T01:14:54.229Z,10.5
2023-01-13T01:16:03.399Z,10.5
2023-01-13T01:17:12.592Z,10.5
2023-01-13T01:18:21.739Z,10.5
2023-01-13T01:19:30.922Z,10.4
2023-01-13T01:20:40.160Z,10.5
2023-01-13T01:21:49.264Z,10.5
2023-01-13T01:22:58.480Z,10.5
2023-01-13T01:24:06.694Z,10.4
2023-01-13T01:25:15.815Z,10.3
2023-01-13T01:26:24.970Z,10.5
2023-01-13T01:27:34.136Z,10.5
2023-01-13T01:28:43.368Z,10.4
2023-01-13T01:29:52.470Z,10.3
2023-01-13T01:31:01.705Z,10.4
2023-01-13T01:32:10.847Z,10.4
2023-01-13T01:33:20.014Z,10.3
2023-01-13T01:34:29.331Z,10.3
2023-01-13T01:35:38.354Z,10.2
2023-01-13T01:36:47.516Z,10.3
2023-01-13T01:37:56.744Z,10.3
2023-01-13T01:39:04.883Z,10.4
2023-01-13T01:40:14.058Z,10.3
2023-01-13T01:41:23.235Z,10.3
2023-01-13T01:42:32.421Z,10.3
2023-01-13T01:43:41.561Z,10.3
2023-01-13T01:44:50.751Z,10.3
2023-01-13T01:45:59.918Z,10.3
2023-01-13T01:47:09.085Z,10.2
2023-01-13T01:48:18.317Z,10.2
2023-01-13T01:49:27.439Z,10.2
2023-01-13T01:51:45.773Z,10.1
2023-01-13T01:52:54.007Z,10
2023-01-13T01:54:02.153Z,9.9
2023-01-13T01:55:10.396Z,10
2023-01-13T01:56:18.543Z,10
2023-01-13T01:57:27.708Z,10
2023-01-13T01:58:36.882Z,9.9
2023-01-13T01:59:46.077Z,9.9
2023-01-13T02:00:55.231Z,9.8
2023-01-13T02:02:04.508Z,9.8
2023-01-13T02:03:13.593Z,9.8
2023-01-13T02:04:22.749Z,9.8
2023-01-13T02:05:31.926Z,9.8
2023-01-13T02:06:41.141Z,9.9
2023-01-13T02:07:50.257Z,9.9
2023-01-13T02:08:59.424Z,9.8
2023-01-13T02:10:08.617Z,9.7
2023-01-13T02:11:16.836Z,9.7
2023-01-13T02:12:25.971Z,9.7
2023-01-13T02:13:35.139Z,9.8
2023-01-13T02:14:44.321Z,9.8
2023-01-13T02:15:53.614Z,9.8
2023-01-13T02:17:02.721Z,9.8
2023-01-13T02:18:11.835Z,9.8
2023-01-13T02:19:21.011Z,9.7
2023-01-13T02:20:30.188Z,9.8
2023-01-13T02:21:39.417Z,9.9
2023-01-13T02:22:48.514Z,9.9
2023-01-13T02:23:57.710Z,9.8
2023-01-13T02:25:06.917Z,9.8
2023-01-13T02:26:15.056Z,9.9
2023-01-13T02:27:24.227Z,9.8
2023-01-13T02:28:33.411Z,9.8
2023-01-13T02:29:42.604Z,9.8
2023-01-13T02:32:00.912Z,9.7
2023-01-13T02:33:10.094Z,9.7
2023-01-13T02:34:19.264Z,9.6
2023-01-13T02:35:28.438Z,9.7
2023-01-13T02:36:37.610Z,9.7
2023-01-13T02:37:45.804Z,9.6
2023-01-13T02:40:03.179Z,9.6
2023-01-13T02:41:12.332Z,9.6
2023-01-13T02:42:21.519Z,9.6
2023-01-13T02:43:30.683Z,9.6
2023-01-13T02:45:48.054Z,9.6
2023-01-13T02:46:56.454Z,9.5
2023-01-13T02:48:04.446Z,9.5
2023-01-13T02:49:13.599Z,9.4
2023-01-13T02:50:22.766Z,9.4
2023-01-13T02:51:31.993Z,9.4
2023-01-13T02:52:41.180Z,9.4
2023-01-13T02:53:50.298Z,9.4
2023-01-13T02:54:59.467Z,9.4
2023-01-13T02:56:08.651Z,9.4
2023-01-13T02:57:17.840Z,9.3
2023-01-13T02:58:26.977Z,9.3
2023-01-13T02:59:36.212Z,9.5
2023-01-13T03:00:45.328Z,9.4
2023-01-13T03:01:54.524Z,9.3
2023-01-13T03:03:02.702Z,9.3
2023-01-13T03:04:11.855Z,9.3
2023-01-13T03:05:21.025Z,9.4
2023-01-13T03:06:30.209Z,9.4
2023-01-13T03:07:39.394Z,9.3
2023-01-13T03:08:48.545Z,9.3
2023-01-13T03:09:57.723Z,9.3
2023-01-13T03:11:05.963Z,9.3
2023-01-13T03:12:14.111Z,9.3
2023-01-13T03:13:22.303Z,9.3
2023-01-13T03:14:30.493Z,9.3
2023-01-13T03:15:39.658Z,9.2
2023-01-13T03:16:48.825Z,9.2
2023-01-13T03:17:58.010Z,9.3
2023-01-13T03:19:07.172Z,9.3
2023-01-13T03:20:16.351Z,9.3
2023-01-13T03:21:25.510Z,9.3
2023-01-13T03:22:34.693Z,9.5
2023-01-13T03:23:43.869Z,9.5
2023-01-13T03:24:53.037Z,9.4
2023-01-13T03:26:02.221Z,9.3
2023-01-13T03:27:11.392Z,9.3
2023-01-13T03:28:20.561Z,9.2
2023-01-13T03:29:28.743Z,9.3
2023-01-13T03:30:37.915Z,9.4
2023-01-13T03:31:47.093Z,9.4
2023-01-13T03:32:56.284Z,9.4
2023-01-13T03:34:05.439Z,9.3
2023-01-13T03:35:14.601Z,9.3
2023-01-13T03:36:23.785Z,9.4
2023-01-13T03:37:31.973Z,9.4
2023-01-13T03:38:40.174Z,9.4
2023-01-13T03:40:57.536Z,9.3
2023-01-13T03:42:05.722Z,9.3
2023-01-13T03:43:13.912Z,9.3
2023-01-13T03:44:23.082Z,9.3
2023-01-13T03:45:32.254Z,9.3
2023-01-13T03:46:41.438Z,9.3
2023-01-13T03:47:50.610Z,9.3
2023-01-13T03:48:59.851Z,9.4
2023-01-13T03:50:08.953Z,9.3
2023-01-13T03:51:18.118Z,9.3
2023-01-13T03:52:27.292Z,9.4
2023-01-13T03:53:36.460Z,9.3
2023-01-13T03:54:45.638Z,9.3
2023-01-13T03:55:54.822Z,9.4
2023-01-13T03:57:03.977Z,9.4
2023-01-13T03:58:12.296Z,9.3
2023-01-13T03:59:21.401Z,9.2
2023-01-13T04:00:30.584Z,9.3
2023-01-13T04:01:39.704Z,9.4
2023-01-13T04:02:48.860Z,9.3
2023-01-13T04:03:58.041Z,9.3
2023-01-13T04:05:07.205Z,9.3
2023-01-13T04:06:16.371Z,9.4
2023-01-13T04:07:25.545Z,9.3
2023-01-13T04:08:34.741Z,9.3
2023-01-13T04:09:43.886Z,9.3
2023-01-13T04:10:53.065Z,9.2
2023-01-13T04:12:02.245Z,9.1
2023-01-13T04:13:10.441Z,9.2
2023-01-13T04:14:18.631Z,9.3
2023-01-13T04:15:26.838Z,9.3
2023-01-13T04:16:35.981Z,9.2
2023-01-13T04:17:45.166Z,9.1
2023-01-13T04:18:53.361Z,9.1
2023-01-13T04:20:01.560Z,9.1
2023-01-13T04:21:10.723Z,9.1
2023-01-13T04:22:19.893Z,9.1
2023-01-13T04:23:29.084Z,9.1
2023-01-13T04:24:38.241Z,9.1
2023-01-13T04:25:47.521Z,9.2
2023-01-13T04:26:56.590Z,9.1
2023-01-13T04:28:05.757Z,9.1
2023-01-13T04:29:14.952Z,9.1
2023-01-13T04:30:24.105Z,9.1
2023-01-13T04:31:33.298Z,9
2023-01-13T04:32:42.442Z,9.1
2023-01-13T04:33:51.634Z,9.1
2023-01-13T04:34:59.802Z,9.1
2023-01-13T04:36:08.976Z,9.1
2023-01-13T04:37:18.150Z,9.1
2023-01-13T04:38:27.321Z,9.1
2023-01-13T04:39:36.495Z,9.1
2023-01-13T04:40:45.672Z,9.1
2023-01-13T04:41:54.845Z,9.2
2023-01-13T04:43:04.041Z,9.1
2023-01-13T04:44:12.213Z,9.1
2023-01-13T04:45:21.396Z,9.1
2023-01-13T04:46:29.580Z,9.1
2023-01-13T04:47:37.761Z,9.1
2023-01-13T04:48:46.977Z,9.1
2023-01-13T04:51:05.288Z,9.1
2023-01-13T04:52:14.460Z,9.1
2023-01-13T04:53:23.624Z,9.2
2023-01-13T04:54:32.793Z,9.2
2023-01-13T04:55:41.973Z,9.2
2023-01-13T04:56:51.152Z,9.2
2023-01-13T04:58:00.327Z,9.2
2023-01-13T04:59:09.620Z,9.3
2023-01-13T05:00:18.710Z,9.2
2023-01-13T05:01:27.911Z,9.2
2023-01-13T05:02:36.058Z,9.3
2023-01-13T05:03:45.247Z,9.2
2023-01-13T05:04:54.411Z,9.2
2023-01-13T05:06:03.588Z,9.2
2023-01-13T05:07:12.774Z,9.1
2023-01-13T05:08:21.930Z,9.2
2023-01-13T05:09:31.108Z,9.3
2023-01-13T05:10:40.286Z,9.2
2023-01-13T05:11:49.451Z,9.3
2023-01-13T05:12:58.617Z,9.3
2023-01-13T05:14:07.803Z,9.3
2023-01-13T05:15:16.982Z,9.3
2023-01-13T05:16:26.140Z,9.3
2023-01-13T05:17:34.320Z,9.4
2023-01-13T05:18:43.503Z,9.4
2023-01-13T05:19:52.673Z,9.3
2023-01-13T05:21:01.831Z,9.2
2023-01-13T05:22:11.015Z,9.3
2023-01-13T05:23:20.321Z,9.4
2023-01-13T05:24:29.361Z,9.5
2023-01-13T05:25:38.527Z,9.3
2023-01-13T05:26:47.712Z,9.3
2023-01-13T05:27:56.891Z,9.4
2023-01-13T05:29:06.048Z,9.4
2023-01-13T05:30:15.214Z,9.3
2023-01-13T05:32:33.567Z,9.4
2023-01-13T05:33:41.753Z,9.4
2023-01-13T05:34:50.929Z,9.5
2023-01-13T05:36:00.100Z,9.5
2023-01-13T05:37:09.289Z,9.5
2023-01-13T05:38:18.491Z,9.4
2023-01-13T05:39:27.616Z,9.5
2023-01-13T05:40:36.796Z,9.5
2023-01-13T05:41:45.965Z,9.5
2023-01-13T05:42:55.137Z,9.4
2023-01-13T05:44:04.320Z,9.4
2023-01-13T05:45:13.480Z,9.5
2023-01-13T05:46:22.660Z,9.5
2023-01-13T05:47:31.827Z,9.5
2023-01-13T05:48:40.021Z,9.4
2023-01-13T05:49:49.186Z,9.3
2023-01-13T05:50:58.346Z,9.4
2023-01-13T05:52:07.601Z,9.4
2023-01-13T05:53:16.695Z,9.5
2023-01-13T05:54:25.873Z,9.4
2023-01-13T05:55:35.055Z,9.3
2023-01-13T05:56:44.217Z,9.4
2023-01-13T05:59:02.602Z,9.4
2023-01-13T06:00:11.792Z,9.3
2023-01-13T06:01:20.917Z,9.3
2023-01-13T06:02:30.096Z,9.2
2023-01-13T06:03:38.272Z,9.3
2023-01-13T06:04:47.464Z,9.1
2023-01-13T06:05:56.619Z,9.2
2023-01-13T06:07:05.787Z,9.2
2023-01-13T06:08:14.957Z,9.2
2023-01-13T06:09:24.137Z,9.2
2023-01-13T06:10:33.294Z,9.1
2023-01-13T06:11:42.486Z,9
2023-01-13T06:12:51.649Z,9.1
2023-01-13T06:14:00.827Z,9.2
2023-01-13T06:15:10.025Z,9.2
2023-01-13T06:16:19.169Z,9.1
2023-01-13T06:17:28.337Z,9.1
2023-01-13T06:18:36.540Z,9.1
2023-01-13T06:19:44.742Z,9.1
2023-01-13T06:20:52.947Z,9.1
2023-01-13T06:22:02.194Z,9.1
2023-01-13T06:23:11.273Z,9
2023-01-13T06:24:20.432Z,9.1
2023-01-13T06:25:29.605Z,9.1
2023-01-13T06:26:38.777Z,9
2023-01-13T06:27:47.945Z,9
2023-01-13T06:28:57.149Z,9.1
2023-01-13T06:30:06.289Z,9
2023-01-13T06:31:15.473Z,9
2023-01-13T06:32:24.639Z,9
2023-01-13T06:33:33.808Z,9
2023-01-13T06:34:43.000Z,9.1
2023-01-13T06:35:51.166Z,9
2023-01-13T06:37:00.338Z,9
2023-01-13T06:38:09.513Z,9
2023-01-13T06:40:27.855Z,9
2023-01-13T06:41:37.047Z,9.1
2023-01-13T06:42:46.207Z,9.1
2023-01-13T06:43:55.374Z,9
2023-01-13T06:45:03.573Z,9.1
2023-01-13T06:46:11.798Z,9
2023-01-13T06:47:19.985Z,9
2023-01-13T06:48:29.121Z,9
2023-01-13T06:50:46.488Z,9
2023-01-13T06:51:55.675Z,9.1
2023-01-13T06:53:04.851Z,9.1
2023-01-13T06:54:13.998Z,9
2023-01-13T06:55:23.181Z,9
2023-01-13T06:56:32.507Z,8.9
2023-01-13T06:57:41.527Z,8.9
2023-01-13T06:58:50.697Z,8.9
2023-01-13T06:59:59.859Z,9
2023-01-13T07:01:09.095Z,9
2023-01-13T07:02:18.213Z,9.1
2023-01-13T07:03:27.378Z,9.1
2023-01-13T07:04:35.568Z,9.1
2023-01-13T07:05:44.836Z,9.1
2023-01-13T07:06:53.921Z,9.1
2023-01-13T07:08:03.126Z,9.1
2023-01-13T07:09:12.254Z,9
2023-01-13T07:10:21.431Z,9.1
2023-01-13T07:11:30.650Z,9.1
2023-01-13T07:12:38.792Z,9.1
2023-01-13T07:13:46.985Z,9.1
2023-01-13T07:14:56.238Z,9.1
2023-01-13T07:16:04.348Z,9.2
2023-01-13T07:17:12.527Z,9.1
2023-01-13T07:18:21.733Z,9.2
2023-01-13T07:19:30.886Z,9.2
2023-01-13T07:20:40.091Z,9.1
2023-01-13T07:21:49.255Z,9.1
2023-01-13T07:22:58.407Z,9.1
2023-01-13T07:24:07.618Z,9.1
2023-01-13T07:25:16.744Z,9
2023-01-13T07:26:25.919Z,9
2023-01-13T07:27:35.084Z,9
2023-01-13T07:28:44.343Z,9
2023-01-13T07:29:53.558Z,8.9
2023-01-13T07:31:02.626Z,8.9
2023-01-13T07:32:10.791Z,9
2023-01-13T07:33:19.980Z,8.9
2023-01-13T07:34:29.214Z,8.9
2023-01-13T07:36:47.505Z,8.9
2023-01-13T07:39:05.847Z,8.9
2023-01-13T07:40:14.066Z,8.9
2023-01-13T07:41:22.237Z,8.9
2023-01-13T07:42:31.418Z,8.9
2023-01-13T07:43:40.678Z,8.9
2023-01-13T07:44:49.741Z,8.9
2023-01-13T07:45:58.899Z,9
2023-01-13T07:47:08.075Z,8.9
2023-01-13T07:48:17.255Z,9
2023-01-13T07:49:26.420Z,9
2023-01-13T07:50:35.588Z,9
2023-01-13T07:51:44.769Z,9
2023-01-13T07:52:52.964Z,9
2023-01-13T07:54:01.142Z,9
2023-01-13T07:55:10.359Z,9
2023-01-13T07:56:19.497Z,9.1
2023-01-13T07:57:28.664Z,9.1
2023-01-13T07:58:37.867Z,9.1
2023-01-13T07:59:47.014Z,9.1
2023-01-13T08:00:56.182Z,9.1
2023-01-13T08:02:05.351Z,9
2023-01-13T08:03:14.533Z,9
2023-01-13T08:04:23.859Z,9
2023-01-13T08:05:32.875Z,9.1
2023-01-13T08:06:42.051Z,9.1
2023-01-13T08:07:51.272Z,9.1
2023-01-13T08:08:59.444Z,9.1
2023-01-13T08:10:08.584Z,9.1
2023-01-13T08:11:16.980Z,9.1
2023-01-13T08:12:25.945Z,9.1
2023-01-13T08:13:35.197Z,9.1
2023-01-13T08:14:44.307Z,9.1
2023-01-13T08:15:53.464Z,9.1
2023-01-13T08:17:01.661Z,9.2
2023-01-13T08:18:09.846Z,9
2023-01-13T08:19:19.021Z,9
2023-01-13T08:20:28.258Z,9
2023-01-13T08:21:37.368Z,9
2023-01-13T08:22:46.528Z,9.1
2023-01-13T08:23:54.805Z,9.1
2023-01-13T08:25:03.082Z,9.1
2023-01-13T08:26:12.111Z,9.1
2023-01-13T08:27:21.278Z,9.1
2023-01-13T08:28:30.432Z,9.1
2023-01-13T08:29:39.625Z,9.1
2023-01-13T08:30:48.785Z,9.1
2023-01-13T08:31:57.956Z,9.1
2023-01-13T08:33:07.158Z,9.2
2023-01-13T08:34:16.334Z,9.1
2023-01-13T08:35:25.481Z,9.1
2023-01-13T08:36:34.655Z,9.1
2023-01-13T08:37:43.818Z,9.1
2023-01-13T08:38:53.019Z,9.1
2023-01-13T08:40:01.204Z,9.1
2023-01-13T08:41:10.430Z,9.1
2023-01-13T08:42:19.524Z,9.1
2023-01-13T08:43:28.707Z,9.1
2023-01-13T08:44:37.868Z,9.1
2023-01-13T08:45:47.055Z,9.1
2023-01-13T08:46:56.235Z,9.1
2023-01-13T08:49:13.627Z,9.1
2023-01-13T08:50:21.866Z,9.1
2023-01-13T08:51:30.940Z,9.2
2023-01-13T08:52:39.145Z,9.1
2023-01-13T08:53:48.388Z,9.1
2023-01-13T08:54:56.504Z,9.1
2023-01-13T08:56:04.753Z,9.1
2023-01-13T08:58:23.136Z,9.1
2023-01-13T08:59:32.247Z,9.1
2023-01-13T09:00:41.380Z,9.1
2023-01-13T09:01:50.653Z,9.1
2023-01-13T09:02:59.842Z,9.2
2023-01-13T09:04:09.061Z,9.2
2023-01-13T09:05:18.097Z,9.2
2023-01-13T09:06:27.291Z,9.2
2023-01-13T09:07:36.422Z,9.3
2023-01-13T09:08:45.632Z,9.3
2023-01-13T09:09:54.765Z,9.3
2023-01-13T09:11:02.943Z,9.3
2023-01-13T09:12:12.125Z,9.3
2023-01-13T09:13:21.282Z,9.3
2023-01-13T09:14:30.499Z,9.2
2023-01-13T09:15:39.640Z,9.3
2023-01-13T09:16:48.815Z,9.2
2023-01-13T09:17:58.001Z,9.2
2023-01-13T09:19:07.161Z,9.2
2023-01-13T09:20:15.443Z,9.2
2023-01-13T09:21:23.556Z,9.2
2023-01-13T09:23:41.895Z,9.1
2023-01-13T09:24:51.058Z,9.2
2023-01-13T09:25:59.258Z,9.3
2023-01-13T09:27:07.439Z,9.2
2023-01-13T09:28:16.616Z,9.2
2023-01-13T09:29:25.793Z,9.2
2023-01-13T09:31:44.148Z,9.2
2023-01-13T09:32:53.293Z,9.2
2023-01-13T09:34:02.483Z,9.3
2023-01-13T09:35:11.672Z,9.3
2023-01-13T09:36:20.825Z,9.3
2023-01-13T09:37:30.003Z,9.3
2023-01-13T09:38:39.297Z,9.3
2023-01-13T09:39:48.330Z,9.3
2023-01-13T09:40:57.527Z,9.3
2023-01-13T09:42:05.713Z,9.3
2023-01-13T09:43:14.881Z,9.3
2023-01-13T09:44:24.052Z,9.3
2023-01-13T09:45:33.224Z,9.3
2023-01-13T09:46:42.385Z,9.4
2023-01-13T09:47:51.570Z,9.5
2023-01-13T09:49:00.738Z,9.5
2023-01-13T09:50:09.988Z,9.5
2023-01-13T09:51:18.097Z,9.5
2023-01-13T09:52:26.297Z,9.5
2023-01-13T09:53:35.600Z,9.5
2023-01-13T09:54:44.636Z,9.5
2023-01-13T09:55:52.827Z,9.5
2023-01-13T09:57:01.021Z,9.6
2023-01-13T09:58:10.195Z,9.5
2023-01-13T09:59:19.445Z,9.5
2023-01-13T10:00:28.540Z,9.5
2023-01-13T10:01:37.703Z,9.5
2023-01-13T10:02:46.888Z,9.5
2023-01-13T10:03:56.118Z,9.4
2023-01-13T10:05:05.226Z,9.4
2023-01-13T10:06:14.392Z,9.4
2023-01-13T10:07:23.576Z,9.4
2023-01-13T10:08:32.740Z,9.4
2023-01-13T10:09:41.931Z,9.4
2023-01-13T10:10:51.115Z,9.4
2023-01-13T10:11:59.284Z,9.5
2023-01-13T10:13:08.479Z,9.5
2023-01-13T10:14:17.629Z,9.5
2023-01-13T10:15:26.787Z,9.5
2023-01-13T10:16:35.967Z,9.5
2023-01-13T10:17:45.142Z,9.6
2023-01-13T10:18:54.346Z,9.6
2023-01-13T10:20:03.527Z,9.5
2023-01-13T10:21:12.662Z,9.5
2023-01-13T10:22:21.832Z,9.6
2023-01-13T10:23:30.995Z,9.6
2023-01-13T10:24:40.390Z,9.7
2023-01-13T10:25:49.604Z,9.7
2023-01-13T10:26:57.793Z,9.6
2023-01-13T10:28:07.075Z,9.7
2023-01-13T10:29:16.111Z,9.7
2023-01-13T10:31:34.462Z,10.5
2023-01-13T10:32:42.648Z,10.6
2023-01-13T10:33:50.825Z,10.2
2023-01-13T10:35:00.025Z,10
2023-01-13T10:36:09.254Z,9.9
2023-01-13T10:37:18.362Z,10.1
2023-01-13T10:38:27.512Z,9.9
2023-01-13T10:39:36.681Z,10
2023-01-13T10:40:44.891Z,10.1
2023-01-13T10:41:53.065Z,10
2023-01-13T10:43:02.342Z,10
2023-01-13T10:44:11.470Z,10
2023-01-13T10:45:20.599Z,9.9
2023-01-13T10:46:29.776Z,10
2023-01-13T10:47:38.971Z,10.2
2023-01-13T10:48:48.114Z,10.1
2023-01-13T10:49:57.280Z,10
2023-01-13T10:51:06.463Z,10.2
2023-01-13T10:52:15.624Z,10.2
2023-01-13T10:53:24.795Z,10
2023-01-13T10:54:34.033Z,10.2
2023-01-13T10:55:43.144Z,10.1
2023-01-13T10:56:51.413Z,10
2023-01-13T10:58:00.547Z,9.9
2023-01-13T10:59:09.695Z,9.9
2023-01-13T11:00:18.992Z,9.9
2023-01-13T11:01:28.027Z,9.9
2023-01-13T11:02:37.355Z,9.9
2023-01-13T11:03:46.395Z,9.9
2023-01-13T11:04:55.546Z,10
2023-01-13T11:06:04.718Z,9.9
2023-01-13T11:07:13.880Z,9.9
2023-01-13T11:08:23.061Z,9.9
2023-01-13T11:09:32.297Z,10
2023-01-13T11:10:41.400Z,10.1
2023-01-13T11:11:49.601Z,10.4
2023-01-13T11:12:58.859Z,10.2
2023-01-13T11:14:06.973Z,10.2
2023-01-13T11:15:15.161Z,10
2023-01-13T11:16:24.338Z,10
2023-01-13T11:17:32.534Z,10
2023-01-13T11:18:40.720Z,9.9
2023-01-13T11:19:49.873Z,9.9
2023-01-13T11:20:59.113Z,9.9
2023-01-13T11:22:08.221Z,9.9
2023-01-13T11:23:17.406Z,9.8
2023-01-13T11:24:26.566Z,9.8
2023-01-13T11:25:35.740Z,9.8
2023-01-13T11:26:44.919Z,9.7
2023-01-13T11:27:54.095Z,9.7
2023-01-13T11:29:03.511Z,9.6
2023-01-13T11:30:12.554Z,9.6
2023-01-13T11:31:21.606Z,9.6
2023-01-13T11:32:30.823Z,9.5
2023-01-13T11:33:39.957Z,9.5
2023-01-13T11:34:48.143Z,9.5
2023-01-13T11:35:57.310Z,9.6
2023-01-13T11:37:06.487Z,9.5
2023-01-13T11:38:15.660Z,9.5
2023-01-13T11:40:33.993Z,9.6
2023-01-13T11:41:43.179Z,9.6
2023-01-13T11:42:51.368Z,9.7
2023-01-13T11:43:59.549Z,9.7
2023-01-13T11:45:07.746Z,9.6
2023-01-13T11:46:15.929Z,9.6
2023-01-13T11:47:25.106Z,9.5
2023-01-13T11:48:34.294Z,9.5
2023-01-13T11:49:43.502Z,9.5
2023-01-13T11:50:52.629Z,9.5
2023-01-13T11:52:01.803Z,9.5
2023-01-13T11:53:10.977Z,9.4
2023-01-13T11:54:20.153Z,9.2
2023-01-13T11:55:29.386Z,9
2023-01-13T11:56:38.505Z,8.9
2023-01-13T11:57:47.655Z,8.9
2023-01-13T11:58:56.841Z,9
2023-01-13T12:00:06.012Z,8.9
2023-01-13T12:01:14.224Z,8.9
2023-01-13T12:02:22.409Z,8.8
2023-01-13T12:03:31.588Z,8.8
2023-01-13T12:04:40.738Z,8.8
2023-01-13T12:06:59.077Z,8.6
2023-01-13T12:08:08.255Z,8.6
2023-01-13T12:09:17.439Z,8.5
2023-01-13T12:10:25.634Z,8.7
2023-01-13T12:11:33.833Z,8.8
2023-01-13T12:12:42.999Z,9.1
2023-01-13T12:13:51.179Z,9.1
2023-01-13T12:16:08.582Z,9.5
2023-01-13T12:17:17.766Z,9.5
2023-01-13T12:18:26.902Z,9.3
2023-01-13T12:19:36.061Z,9.2
2023-01-13T12:20:45.304Z,9.3
2023-01-13T12:21:54.395Z,9.3
2023-01-13T12:23:03.581Z,9.1
2023-01-13T12:24:12.804Z,9.1
2023-01-13T12:25:21.941Z,9.1
2023-01-13T12:26:31.088Z,9.3
2023-01-13T12:27:40.268Z,9.3
2023-01-13T12:28:49.503Z,9.2
2023-01-13T12:29:57.683Z,9.2
2023-01-13T12:32:15.966Z,9.2
2023-01-13T12:33:25.159Z,9.2
2023-01-13T12:34:34.307Z,9.2
2023-01-13T12:36:52.652Z,9.1
2023-01-13T12:38:00.846Z,9.2
2023-01-13T12:40:18.206Z,9.2
2023-01-13T12:41:27.403Z,9.3
2023-01-13T12:42:36.619Z,9.3
2023-01-13T12:43:45.732Z,9.3
2023-01-13T12:44:54.895Z,9.4
2023-01-13T12:46:04.085Z,9.3
2023-01-13T12:47:13.256Z,9.4
2023-01-13T12:48:22.421Z,9.3
2023-01-13T12:49:31.598Z,9.3
2023-01-13T12:50:40.798Z,9.3
2023-01-13T12:51:48.954Z,9.3
2023-01-13T12:52:57.139Z,9.2
2023-01-13T12:54:06.329Z,9.2
2023-01-13T12:55:15.507Z,9.1
2023-01-13T12:56:24.654Z,9.1
2023-01-13T12:57:33.840Z,9.1
2023-01-13T12:58:43.019Z,9.2
2023-01-13T12:59:52.187Z,9.2
2023-01-13T13:01:01.361Z,9.2
2023-01-13T13:02:10.545Z,9.2
2023-01-13T13:03:19.700Z,9.2
2023-01-13T13:04:28.873Z,9.2
2023-01-13T13:05:38.047Z,9.1
2023-01-13T13:06:47.211Z,9.2
2023-01-13T13:07:55.400Z,9.2
2023-01-13T13:09:04.585Z,9.1
2023-01-13T13:10:13.740Z,9.1
2023-01-13T13:11:22.929Z,9.2
2023-01-13T13:12:32.094Z,9.2
2023-01-13T13:13:41.282Z,9.2
2023-01-13T13:14:50.434Z,9.2
2023-01-13T13:15:58.631Z,9.2
2023-01-13T13:17:06.826Z,9.2
2023-01-13T13:20:33.350Z,9.2
2023-01-13T13:21:41.578Z,9.2
2023-01-13T13:22:49.742Z,9.3
2023-01-13T13:23:58.933Z,9.3
2023-01-13T13:25:08.077Z,9.3
2023-01-13T13:26:17.262Z,9.5
2023-01-13T13:27:26.485Z,9.6
2023-01-13T13:28:35.596Z,9.7
2023-01-13T13:29:44.869Z,9.7
2023-01-13T13:30:53.953Z,9.6
2023-01-13T13:32:03.123Z,9.6
2023-01-13T13:33:12.394Z,9.5
2023-01-13T13:34:21.475Z,9.6
2023-01-13T13:35:30.630Z,9.5
2023-01-13T13:36:39.809Z,9.7
2023-01-13T13:37:48.013Z,9.9
2023-01-13T13:38:57.174Z,9.8
2023-01-13T13:40:06.358Z,9.8
2023-01-13T13:41:15.573Z,9.6
2023-01-13T13:42:24.692Z,9.5
2023-01-13T13:43:33.871Z,9.5
2023-01-13T13:44:43.042Z,9.3
2023-01-13T13:45:51.235Z,9.3
2023-01-13T13:46:59.466Z,9.3
2023-01-13T13:48:07.684Z,9.3
2023-01-13T13:49:15.802Z,9.3
2023-01-13T13:50:24.972Z,9.3
2023-01-13T13:51:34.242Z,9.2
2023-01-13T13:52:43.313Z,9.1
2023-01-13T13:53:52.489Z,9
2023-01-13T13:55:01.740Z,9
2023-01-13T13:56:10.907Z,8.9
2023-01-13T13:57:20.025Z,8.8
2023-01-13T13:58:29.179Z,8.8
2023-01-13T13:59:38.394Z,8.8
2023-01-13T14:00:47.552Z,8.7
2023-01-13T14:01:56.694Z,8.8
2023-01-13T14:03:05.868Z,8.7
2023-01-13T14:04:14.055Z,8.7
2023-01-13T14:05:23.246Z,8.7
2023-01-13T14:06:32.420Z,8.8
2023-01-13T14:07:41.577Z,8.8
2023-01-13T14:08:50.713Z,8.7
2023-01-13T14:09:59.909Z,8.6
2023-01-13T14:11:09.049Z,8.4
2023-01-13T14:12:17.247Z,8.3
2023-01-13T14:13:25.444Z,8.4
2023-01-13T14:14:34.637Z,8.4
2023-01-13T14:15:42.822Z,8.3
2023-01-13T14:16:50.987Z,8.3
2023-01-13T14:18:00.156Z,8.2
2023-01-13T14:20:18.501Z,8.3
2023-01-13T14:21:27.707Z,8.2
2023-01-13T14:22:36.848Z,8.2
2023-01-13T14:23:46.014Z,8.1
2023-01-13T14:24:55.200Z,8.1
2023-01-13T14:26:04.360Z,8.2
2023-01-13T14:27:13.532Z,8.3
2023-01-13T14:28:22.716Z,8.2
2023-01-13T14:29:31.867Z,8.2
2023-01-13T14:30:41.031Z,8.2
2023-01-13T14:31:49.237Z,8.2
2023-01-13T14:32:58.406Z,8.3
2023-01-13T14:34:07.570Z,8.4
2023-01-13T14:35:16.742Z,8.3
2023-01-13T14:36:25.914Z,8.4
2023-01-13T14:37:35.100Z,8.4
2023-01-13T14:38:44.271Z,8.3
2023-01-13T14:39:53.432Z,8.3
2023-01-13T14:41:01.628Z,8.2
2023-01-13T14:42:09.865Z,8.2
2023-01-13T14:43:18.991Z,8.3
2023-01-13T14:44:27.211Z,8.3
2023-01-13T14:45:36.367Z,8.2
2023-01-13T14:46:44.662Z,8.2
2023-01-13T14:47:53.714Z,8.3
2023-01-13T14:49:02.944Z,8.4
2023-01-13T14:50:12.068Z,8.3
2023-01-13T14:51:21.235Z,8.3
2023-01-13T14:52:30.400Z,8.2
2023-01-13T14:53:39.607Z,8.3
2023-01-13T14:54:48.816Z,8.3
2023-01-13T14:55:57.919Z,8.3
2023-01-13T14:57:07.086Z,8.3
2023-01-13T14:58:16.263Z,8.3
2023-01-13T14:59:25.429Z,8.4
2023-01-13T15:00:34.611Z,8.3
2023-01-13T15:01:42.800Z,8.4
2023-01-13T15:02:51.966Z,8.5
2023-01-13T15:04:01.171Z,8.4
2023-01-13T15:05:10.327Z,8.5
2023-01-13T15:06:19.488Z,8.5
2023-01-13T15:08:37.825Z,8.5
2023-01-13T15:09:46.044Z,8.4
2023-01-13T15:12:03.496Z,8.4
2023-01-13T15:13:11.590Z,8.4
2023-01-13T15:14:19.771Z,8.4
2023-01-13T15:15:28.943Z,8.3
2023-01-13T15:16:38.119Z,8.3
2023-01-13T15:17:47.289Z,8.3
2023-01-13T15:18:56.451Z,8.2
2023-01-13T15:20:05.637Z,8.2
2023-01-13T15:21:14.813Z,8.2
2023-01-13T15:22:24.000Z,8.3
2023-01-13T15:23:33.153Z,8.2
2023-01-13T15:24:42.312Z,8.3
2023-01-13T15:25:51.505Z,8.3
2023-01-13T15:27:00.660Z,8.4
2023-01-13T15:28:09.865Z,8.4
2023-01-13T15:29:18.027Z,8.3
2023-01-13T15:30:27.190Z,8.4
2023-01-13T15:31:36.369Z,8.4
2023-01-13T15:32:45.561Z,8.4
2023-01-13T15:33:54.713Z,8.4
2023-01-13T15:35:03.897Z,8.4
2023-01-13T15:36:13.065Z,8.3
2023-01-13T15:38:31.412Z,8.3
2023-01-13T15:39:39.620Z,8.3
2023-01-13T15:40:47.818Z,8.4
2023-01-13T15:41:55.988Z,8.4
2023-01-13T15:43:04.199Z,8.3
2023-01-13T15:44:13.344Z,8.3
2023-01-13T15:45:22.519Z,8.3
2023-01-13T15:46:31.794Z,8.3
2023-01-13T15:47:40.872Z,8.4
2023-01-13T15:48:50.044Z,8.3
2023-01-13T15:49:59.213Z,8.3
2023-01-13T15:52:17.553Z,8.4
2023-01-13T15:53:25.788Z,8.4
2023-01-13T15:54:34.920Z,8.4
2023-01-13T15:55:44.093Z,8.5
2023-01-13T15:56:53.272Z,8.5
2023-01-13T15:58:02.477Z,8.5
2023-01-13T15:59:11.737Z,8.5
2023-01-13T16:00:20.816Z,8.4
2023-01-13T16:01:29.980Z,8.5
2023-01-13T16:02:39.160Z,8.4
2023-01-13T16:03:48.311Z,8.4
2023-01-13T16:04:57.486Z,8.5
2023-01-13T16:06:06.665Z,8.5
2023-01-13T16:07:14.862Z,8.5
2023-01-13T16:08:23.046Z,8.4
2023-01-13T16:09:32.204Z,8.5
2023-01-13T16:10:41.386Z,8.5
2023-01-13T16:11:50.646Z,8.5
2023-01-13T16:12:59.729Z,8.5
2023-01-13T16:14:07.939Z,8.5
2023-01-13T16:15:16.121Z,8.5
2023-01-13T16:16:25.303Z,8.5
2023-01-13T16:17:34.464Z,8.5
2023-01-13T16:18:43.641Z,8.5
2023-01-13T16:19:52.817Z,8.5
2023-01-13T16:21:02.005Z,8.5
2023-01-13T16:23:20.350Z,8.5
2023-01-13T16:24:29.509Z,8.4
2023-01-13T16:25:38.729Z,8.4
2023-01-13T16:26:47.879Z,8.4
2023-01-13T16:27:57.037Z,8.5
2023-01-13T16:29:06.212Z,8.5